sensor_id;sensor_type;location;lat;lon;timestamp;P1;durP1;ratioP1;P2;durP2;ratioP2
56629;SDS011;42502;40.732;-74.254;2022-10-31T00:00:36;3.40;;;0.70;;
56629;SDS011;42502;40.732;-74.254;2022-10-31T00:02:37;5.07;;;0.80;;
56629;SDS011;42502;40.732;-74.254;2022-10-31T00:04:41;2.35;;;0.90;;
56629;SDS011;42502;40.732;-74.254;2022-10-31T00:06:42;4.88;;;0.95;;
56629;SDS011;42502;40.732;-74.254;2022-10-31T00:08:43;1.60;;;0.68;;
56629;SDS011;42502;40.732;-74.254;2022-10-31T00:10:45;2.03;;;0.63;;
56629;SDS011;42502;40.732;-74.254;2022-10-31T00:12:46;2.03;;;0.60;;
56629;SDS011;42502;40.732;-74.254;2022-10-31T00:14:47;1.27;;;0.70;;
56629;SDS011;42502;40.732;-74.254;2022-10-31T00:16:47;1.95;;;0.70;;
56629;SDS011;42502;40.732;-74.254;2022-10-31T00:18:51;2.78;;;0.60;;
56629;SDS011;42502;40.732;-74.254;2022-10-31T00:21:00;4.18;;;0.73;;
56629;SDS011;42502;40.732;-74.254;2022-10-31T00:23:02;2.25;;;0.70;;
56629;SDS011;42502;40.732;-74.254;2022-10-31T00:25:04;2.85;;;0.75;;
56629;SDS011;42502;40.732;-74.254;2022-10-31T00:27:05;7.88;;;0.75;;
56629;SDS011;42502;40.732;-74.254;2022-10-31T00:29:06;6.82;;;1.02;;
56629;SDS011;42502;40.732;-74.254;2022-10-31T00:31:08;2.58;;;0.80;;
56629;SDS011;42502;40.732;-74.254;2022-10-31T00:33:10;6.95;;;0.82;;
56629;SDS011;42502;40.732;-74.254;2022-10-31T00:35:10;3.83;;;0.95;;
56629;SDS011;42502;40.732;-74.254;2022-10-31T00:37:11;5.60;;;0.80;;
56629;SDS011;42502;40.732;-74.254;2022-10-31T00:39:12;4.20;;;0.80;;
56629;SDS011;42502;40.732;-74.254;2022-10-31T00:41:14;2.42;;;0.85;;
56629;SDS011;42502;40.732;-74.254;2022-10-31T00:43:19;6.90;;;1.02;;
56629;SDS011;42502;40.732;-74.254;2022-10-31T00:45:20;3.25;;;0.80;;
56629;SDS011;42502;40.732;-74.254;2022-10-31T00:47:23;3.67;;;0.95;;
56629;SDS011;42502;40.732;-74.254;2022-10-31T00:49:26;9.23;;;0.90;;
56629;SDS011;42502;40.732;-74.254;2022-10-31T00:51:27;2.35;;;0.80;;
56629;SDS011;42502;40.732;-74.254;2022-10-31T00:53:31;7.13;;;0.80;;
56629;SDS011;42502;40.732;-74.254;2022-10-31T00:55:32;1.83;;;0.77;;
56629;SDS011;42502;40.732;-74.254;2022-10-31T00:57:33;2.53;;;0.80;;
56629;SDS011;42502;40.732;-74.254;2022-10-31T00:59:37;5.72;;;0.80;;
56629;SDS011;42502;40.732;-74.254;2022-10-31T01:01:37;5.68;;;0.82;;
56629;SDS011;42502;40.732;-74.254;2022-10-31T01:03:38;7.63;;;0.90;;
56629;SDS011;42502;40.732;-74.254;2022-10-31T01:05:39;6.72;;;0.80;;
56629;SDS011;42502;40.732;-74.254;2022-10-31T01:07:40;3.80;;;0.80;;
56629;SDS011;42502;40.732;-74.254;2022-10-31T01:09:44;6.13;;;0.90;;
56629;SDS011;42502;40.732;-74.254;2022-10-31T01:11:45;6.78;;;1.10;;
56629;SDS011;42502;40.732;-74.254;2022-10-31T01:13:46;7.38;;;0.80;;
56629;SDS011;42502;40.732;-74.254;2022-10-31T01:15:53;6.88;;;0.95;;
56629;SDS011;42502;40.732;-74.254;2022-10-31T01:17:55;5.28;;;0.98;;
56629;SDS011;42502;40.732;-74.254;2022-10-31T01:19:56;5.78;;;0.80;;
56629;SDS011;42502;40.732;-74.254;2022-10-31T01:21:56;8.95;;;1.13;;
56629;SDS011;42502;40.732;-74.254;2022-10-31T01:23:57;7.65;;;0.93;;
56629;SDS011;42502;40.732;-74.254;2022-10-31T01:28:03;6.10;;;0.90;;
56629;SDS011;42502;40.732;-74.254;2022-10-31T01:30:04;8.48;;;1.20;;
56629;SDS011;42502;40.732;-74.254;2022-10-31T01:32:06;5.70;;;0.93;;
56629;SDS011;42502;40.732;-74.254;2022-10-31T01:34:06;7.25;;;1.00;;
56629;SDS011;42502;40.732;-74.254;2022-10-31T01:36:14;9.02;;;1.30;;
56629;SDS011;42502;40.732;-74.254;2022-10-31T01:38:17;5.72;;;1.08;;
56629;SDS011;42502;40.732;-74.254;2022-10-31T01:40:18;7.97;;;1.15;;
56629;SDS011;42502;40.732;-74.254;2022-10-31T01:42:19;7.93;;;1.20;;
56629;SDS011;42502;40.732;-74.254;2022-10-31T01:46:27;9.68;;;1.58;;
56629;SDS011;42502;40.732;-74.254;2022-10-31T01:48:29;12.98;;;1.08;;
56629;SDS011;42502;40.732;-74.254;2022-10-31T01:50:33;12.43;;;1.20;;
56629;SDS011;42502;40.732;-74.254;2022-10-31T01:52:42;13.43;;;1.13;;
56629;SDS011;42502;40.732;-74.254;2022-10-31T01:54:50;11.10;;;1.05;;
56629;SDS011;42502;40.732;-74.254;2022-10-31T01:56:58;10.75;;;1.10;;
56629;SDS011;42502;40.732;-74.254;2022-10-31T01:59:01;7.00;;;1.20;;
56629;SDS011;42502;40.732;-74.254;2022-10-31T02:01:05;7.82;;;1.10;;
56629;SDS011;42502;40.732;-74.254;2022-10-31T02:03:06;8.43;;;1.30;;
56629;SDS011;42502;40.732;-74.254;2022-10-31T02:05:10;12.05;;;1.60;;
56629;SDS011;42502;40.732;-74.254;2022-10-31T02:07:18;10.63;;;1.60;;
56629;SDS011;42502;40.732;-74.254;2022-10-31T02:09:26;13.98;;;1.30;;
56629;SDS011;42502;40.732;-74.254;2022-10-31T02:11:34;13.50;;;1.70;;
56629;SDS011;42502;40.732;-74.254;2022-10-31T02:13:37;13.20;;;1.58;;
56629;SDS011;42502;40.732;-74.254;2022-10-31T02:15:38;12.88;;;1.55;;
56629;SDS011;42502;40.732;-74.254;2022-10-31T02:17:40;11.70;;;1.20;;
56629;SDS011;42502;40.732;-74.254;2022-10-31T02:22:11;13.32;;;1.60;;
56629;SDS011;42502;40.732;-74.254;2022-10-31T02:24:29;11.90;;;1.88;;
56629;SDS011;42502;40.732;-74.254;2022-10-31T02:31:41;11.40;;;1.20;;
56629;SDS011;42502;40.732;-74.254;2022-10-31T02:33:52;17.38;;;1.58;;
56629;SDS011;42502;40.732;-74.254;2022-10-31T02:40:28;15.05;;;1.65;;
56629;SDS011;42502;40.732;-74.254;2022-10-31T02:42:41;10.68;;;1.33;;
56629;SDS011;42502;40.732;-74.254;2022-10-31T02:45:05;13.23;;;1.90;;
56629;SDS011;42502;40.732;-74.254;2022-10-31T02:47:14;13.52;;;1.60;;
56629;SDS011;42502;40.732;-74.254;2022-10-31T02:51:28;12.93;;;1.48;;
56629;SDS011;42502;40.732;-74.254;2022-10-31T02:53:36;13.85;;;1.63;;
56629;SDS011;42502;40.732;-74.254;2022-10-31T02:57:41;12.35;;;1.52;;
56629;SDS011;42502;40.732;-74.254;2022-10-31T02:59:49;15.25;;;1.55;;
56629;SDS011;42502;40.732;-74.254;2022-10-31T03:02:01;14.63;;;2.08;;
56629;SDS011;42502;40.732;-74.254;2022-10-31T03:06:39;15.55;;;1.80;;
56629;SDS011;42502;40.732;-74.254;2022-10-31T03:09:03;12.77;;;1.40;;
56629;SDS011;42502;40.732;-74.254;2022-10-31T03:11:12;8.38;;;1.58;;
56629;SDS011;42502;40.732;-74.254;2022-10-31T03:17:41;10.43;;;1.55;;
56629;SDS011;42502;40.732;-74.254;2022-10-31T03:19:49;9.30;;;1.40;;
56629;SDS011;42502;40.732;-74.254;2022-10-31T03:22:07;8.57;;;1.27;;
56629;SDS011;42502;40.732;-74.254;2022-10-31T03:24:15;11.35;;;1.73;;
56629;SDS011;42502;40.732;-74.254;2022-10-31T03:26:16;8.45;;;1.55;;
56629;SDS011;42502;40.732;-74.254;2022-10-31T03:28:20;6.85;;;1.38;;
56629;SDS011;42502;40.732;-74.254;2022-10-31T03:30:27;7.88;;;1.30;;
56629;SDS011;42502;40.732;-74.254;2022-10-31T03:32:38;13.02;;;1.98;;
56629;SDS011;42502;40.732;-74.254;2022-10-31T03:34:43;11.60;;;2.03;;
56629;SDS011;42502;40.732;-74.254;2022-10-31T03:36:44;8.60;;;1.30;;
56629;SDS011;42502;40.732;-74.254;2022-10-31T03:38:52;13.70;;;1.88;;
56629;SDS011;42502;40.732;-74.254;2022-10-31T03:40:55;9.35;;;1.25;;
56629;SDS011;42502;40.732;-74.254;2022-10-31T03:43:03;8.57;;;1.50;;
56629;SDS011;42502;40.732;-74.254;2022-10-31T03:45:15;10.82;;;1.80;;
56629;SDS011;42502;40.732;-74.254;2022-10-31T03:47:25;10.40;;;1.60;;
56629;SDS011;42502;40.732;-74.254;2022-10-31T03:49:26;10.85;;;1.35;;
56629;SDS011;42502;40.732;-74.254;2022-10-31T03:56:19;10.07;;;1.40;;
56629;SDS011;42502;40.732;-74.254;2022-10-31T03:58:26;9.38;;;1.50;;
56629;SDS011;42502;40.732;-74.254;2022-10-31T04:00:35;8.45;;;1.42;;
56629;SDS011;42502;40.732;-74.254;2022-10-31T04:02:42;5.15;;;1.45;;
56629;SDS011;42502;40.732;-74.254;2022-10-31T04:05:09;7.00;;;1.30;;
56629;SDS011;42502;40.732;-74.254;2022-10-31T04:07:13;6.40;;;1.35;;
56629;SDS011;42502;40.732;-74.254;2022-10-31T04:09:20;10.48;;;1.50;;
56629;SDS011;42502;40.732;-74.254;2022-10-31T04:11:28;6.00;;;1.23;;
56629;SDS011;42502;40.732;-74.254;2022-10-31T04:13:33;8.10;;;1.58;;
56629;SDS011;42502;40.732;-74.254;2022-10-31T04:15:37;7.03;;;1.40;;
56629;SDS011;42502;40.732;-74.254;2022-10-31T04:17:41;8.70;;;1.17;;
56629;SDS011;42502;40.732;-74.254;2022-10-31T04:19:48;2.65;;;1.13;;
56629;SDS011;42502;40.732;-74.254;2022-10-31T04:21:49;5.60;;;1.30;;
56629;SDS011;42502;40.732;-74.254;2022-10-31T04:23:50;5.80;;;1.10;;
56629;SDS011;42502;40.732;-74.254;2022-10-31T04:25:54;8.15;;;1.23;;
56629;SDS011;42502;40.732;-74.254;2022-10-31T04:27:58;7.40;;;1.30;;
56629;SDS011;42502;40.732;-74.254;2022-10-31T04:29:58;4.07;;;1.02;;
56629;SDS011;42502;40.732;-74.254;2022-10-31T04:31:59;7.63;;;1.20;;
56629;SDS011;42502;40.732;-74.254;2022-10-31T04:34:00;8.13;;;1.20;;
56629;SDS011;42502;40.732;-74.254;2022-10-31T04:36:01;5.90;;;1.25;;
56629;SDS011;42502;40.732;-74.254;2022-10-31T04:38:05;8.70;;;1.20;;
56629;SDS011;42502;40.732;-74.254;2022-10-31T04:40:06;8.07;;;1.25;;
56629;SDS011;42502;40.732;-74.254;2022-10-31T04:42:07;4.45;;;1.40;;
56629;SDS011;42502;40.732;-74.254;2022-10-31T04:44:10;4.97;;;1.30;;
56629;SDS011;42502;40.732;-74.254;2022-10-31T04:46:11;7.18;;;1.20;;
56629;SDS011;42502;40.732;-74.254;2022-10-31T04:48:12;7.00;;;1.17;;
56629;SDS011;42502;40.732;-74.254;2022-10-31T04:50:13;4.40;;;1.20;;
56629;SDS011;42502;40.732;-74.254;2022-10-31T04:52:14;11.23;;;1.42;;
56629;SDS011;42502;40.732;-74.254;2022-10-31T04:54:14;6.85;;;1.20;;
56629;SDS011;42502;40.732;-74.254;2022-10-31T04:56:15;2.97;;;0.93;;
56629;SDS011;42502;40.732;-74.254;2022-10-31T04:58:16;6.80;;;1.20;;
56629;SDS011;42502;40.732;-74.254;2022-10-31T05:00:18;6.32;;;1.10;;
56629;SDS011;42502;40.732;-74.254;2022-10-31T05:02:20;5.60;;;1.50;;
56629;SDS011;42502;40.732;-74.254;2022-10-31T05:04:21;6.22;;;1.00;;
56629;SDS011;42502;40.732;-74.254;2022-10-31T05:06:22;5.10;;;1.65;;
56629;SDS011;42502;40.732;-74.254;2022-10-31T05:08:23;2.40;;;1.00;;
56629;SDS011;42502;40.732;-74.254;2022-10-31T05:10:27;5.90;;;1.20;;
56629;SDS011;42502;40.732;-74.254;2022-10-31T05:12:29;4.78;;;1.30;;
56629;SDS011;42502;40.732;-74.254;2022-10-31T05:14:30;5.00;;;1.65;;
56629;SDS011;42502;40.732;-74.254;2022-10-31T05:16:31;5.13;;;1.23;;
56629;SDS011;42502;40.732;-74.254;2022-10-31T05:18:35;6.25;;;1.27;;
56629;SDS011;42502;40.732;-74.254;2022-10-31T05:20:35;3.15;;;1.05;;
56629;SDS011;42502;40.732;-74.254;2022-10-31T05:22:36;4.50;;;1.40;;
56629;SDS011;42502;40.732;-74.254;2022-10-31T05:24:37;5.03;;;1.30;;
56629;SDS011;42502;40.732;-74.254;2022-10-31T05:26:38;4.07;;;1.10;;
56629;SDS011;42502;40.732;-74.254;2022-10-31T05:28:39;4.88;;;1.35;;
56629;SDS011;42502;40.732;-74.254;2022-10-31T05:30:40;4.32;;;1.10;;
56629;SDS011;42502;40.732;-74.254;2022-10-31T05:32:41;4.78;;;1.17;;
56629;SDS011;42502;40.732;-74.254;2022-10-31T05:34:47;4.18;;;1.20;;
56629;SDS011;42502;40.732;-74.254;2022-10-31T05:36:50;2.80;;;1.00;;
56629;SDS011;42502;40.732;-74.254;2022-10-31T05:38:54;4.45;;;1.10;;
56629;SDS011;42502;40.732;-74.254;2022-10-31T05:40:55;3.35;;;1.02;;
56629;SDS011;42502;40.732;-74.254;2022-10-31T05:45:01;5.13;;;1.20;;
56629;SDS011;42502;40.732;-74.254;2022-10-31T05:47:02;5.22;;;1.35;;
56629;SDS011;42502;40.732;-74.254;2022-10-31T05:49:03;1.83;;;0.98;;
56629;SDS011;42502;40.732;-74.254;2022-10-31T05:51:04;2.97;;;1.00;;
56629;SDS011;42502;40.732;-74.254;2022-10-31T05:53:05;5.90;;;1.35;;
56629;SDS011;42502;40.732;-74.254;2022-10-31T05:55:05;2.45;;;1.08;;
56629;SDS011;42502;40.732;-74.254;2022-10-31T05:57:06;2.20;;;1.15;;
56629;SDS011;42502;40.732;-74.254;2022-10-31T05:59:07;4.15;;;1.13;;
56629;SDS011;42502;40.732;-74.254;2022-10-31T06:01:11;4.55;;;1.30;;
56629;SDS011;42502;40.732;-74.254;2022-10-31T06:03:15;2.05;;;0.85;;
56629;SDS011;42502;40.732;-74.254;2022-10-31T06:05:18;3.15;;;1.20;;
56629;SDS011;42502;40.732;-74.254;2022-10-31T06:07:19;3.95;;;0.95;;
56629;SDS011;42502;40.732;-74.254;2022-10-31T06:09:19;3.00;;;1.10;;
56629;SDS011;42502;40.732;-74.254;2022-10-31T06:11:23;2.28;;;0.90;;
56629;SDS011;42502;40.732;-74.254;2022-10-31T06:13:24;4.07;;;1.17;;
56629;SDS011;42502;40.732;-74.254;2022-10-31T06:15:25;5.57;;;1.17;;
56629;SDS011;42502;40.732;-74.254;2022-10-31T06:17:26;4.40;;;1.00;;
56629;SDS011;42502;40.732;-74.254;2022-10-31T06:19:27;2.90;;;1.08;;
56629;SDS011;42502;40.732;-74.254;2022-10-31T06:21:30;1.83;;;0.82;;
56629;SDS011;42502;40.732;-74.254;2022-10-31T06:23:31;2.65;;;0.95;;
56629;SDS011;42502;40.732;-74.254;2022-10-31T06:25:32;4.10;;;1.08;;
56629;SDS011;42502;40.732;-74.254;2022-10-31T06:27:33;2.05;;;1.02;;
56629;SDS011;42502;40.732;-74.254;2022-10-31T06:29:34;2.45;;;0.90;;
56629;SDS011;42502;40.732;-74.254;2022-10-31T06:31:34;4.50;;;1.00;;
56629;SDS011;42502;40.732;-74.254;2022-10-31T06:33:40;2.42;;;0.90;;
56629;SDS011;42502;40.732;-74.254;2022-10-31T06:35:47;3.22;;;1.10;;
56629;SDS011;42502;40.732;-74.254;2022-10-31T06:37:51;2.80;;;0.90;;
56629;SDS011;42502;40.732;-74.254;2022-10-31T06:40:01;4.32;;;0.88;;
56629;SDS011;42502;40.732;-74.254;2022-10-31T06:42:03;2.63;;;1.02;;
56629;SDS011;42502;40.732;-74.254;2022-10-31T06:44:05;2.10;;;1.10;;
56629;SDS011;42502;40.732;-74.254;2022-10-31T06:46:06;4.32;;;0.90;;
56629;SDS011;42502;40.732;-74.254;2022-10-31T06:48:07;2.05;;;0.90;;
56629;SDS011;42502;40.732;-74.254;2022-10-31T06:50:11;1.95;;;0.73;;
56629;SDS011;42502;40.732;-74.254;2022-10-31T06:52:11;1.33;;;0.82;;
56629;SDS011;42502;40.732;-74.254;2022-10-31T06:54:12;1.48;;;0.90;;
56629;SDS011;42502;40.732;-74.254;2022-10-31T06:56:16;2.40;;;0.88;;
56629;SDS011;42502;40.732;-74.254;2022-10-31T06:58:17;1.27;;;0.80;;
56629;SDS011;42502;40.732;-74.254;2022-10-31T07:00:18;2.67;;;1.05;;
56629;SDS011;42502;40.732;-74.254;2022-10-31T07:02:20;1.65;;;0.80;;
56629;SDS011;42502;40.732;-74.254;2022-10-31T07:04:21;2.63;;;0.80;;
56629;SDS011;42502;40.732;-74.254;2022-10-31T07:06:22;1.17;;;0.80;;
56629;SDS011;42502;40.732;-74.254;2022-10-31T07:08:23;1.20;;;0.98;;
56629;SDS011;42502;40.732;-74.254;2022-10-31T07:10:25;2.25;;;0.80;;
56629;SDS011;42502;40.732;-74.254;2022-10-31T07:12:27;2.20;;;1.00;;
56629;SDS011;42502;40.732;-74.254;2022-10-31T07:14:28;1.95;;;0.98;;
56629;SDS011;42502;40.732;-74.254;2022-10-31T07:16:29;1.20;;;0.98;;
56629;SDS011;42502;40.732;-74.254;2022-10-31T07:18:30;1.25;;;0.90;;
56629;SDS011;42502;40.732;-74.254;2022-10-31T07:20:34;1.00;;;0.77;;
56629;SDS011;42502;40.732;-74.254;2022-10-31T07:22:35;2.03;;;0.70;;
56629;SDS011;42502;40.732;-74.254;2022-10-31T07:24:37;1.65;;;0.90;;
56629;SDS011;42502;40.732;-74.254;2022-10-31T07:26:38;2.40;;;0.80;;
56629;SDS011;42502;40.732;-74.254;2022-10-31T07:28:38;1.83;;;0.82;;
56629;SDS011;42502;40.732;-74.254;2022-10-31T07:30:42;2.45;;;0.80;;
56629;SDS011;42502;40.732;-74.254;2022-10-31T07:32:44;1.65;;;0.82;;
56629;SDS011;42502;40.732;-74.254;2022-10-31T07:34:46;1.05;;;0.88;;
56629;SDS011;42502;40.732;-74.254;2022-10-31T07:36:47;1.05;;;0.80;;
56629;SDS011;42502;40.732;-74.254;2022-10-31T07:38:47;1.90;;;0.80;;
56629;SDS011;42502;40.732;-74.254;2022-10-31T07:40:49;1.23;;;0.70;;
56629;SDS011;42502;40.732;-74.254;2022-10-31T07:42:57;1.20;;;0.80;;
56629;SDS011;42502;40.732;-74.254;2022-10-31T07:44:58;1.70;;;0.80;;
56629;SDS011;42502;40.732;-74.254;2022-10-31T07:46:59;1.40;;;0.80;;
56629;SDS011;42502;40.732;-74.254;2022-10-31T07:48:59;1.25;;;0.75;;
56629;SDS011;42502;40.732;-74.254;2022-10-31T07:51:00;2.97;;;0.77;;
56629;SDS011;42502;40.732;-74.254;2022-10-31T07:53:02;1.63;;;0.80;;
56629;SDS011;42502;40.732;-74.254;2022-10-31T07:55:05;2.45;;;0.88;;
56629;SDS011;42502;40.732;-74.254;2022-10-31T07:57:10;0.98;;;0.80;;
56629;SDS011;42502;40.732;-74.254;2022-10-31T07:59:10;2.63;;;0.90;;
56629;SDS011;42502;40.732;-74.254;2022-10-31T08:01:20;0.80;;;0.70;;
56629;SDS011;42502;40.732;-74.254;2022-10-31T08:03:21;1.20;;;0.80;;
56629;SDS011;42502;40.732;-74.254;2022-10-31T08:05:22;3.15;;;0.77;;
56629;SDS011;42502;40.732;-74.254;2022-10-31T08:07:23;2.03;;;0.73;;
56629;SDS011;42502;40.732;-74.254;2022-10-31T08:09:24;2.00;;;0.80;;
56629;SDS011;42502;40.732;-74.254;2022-10-31T08:11:24;1.10;;;0.75;;
56629;SDS011;42502;40.732;-74.254;2022-10-31T08:13:25;1.33;;;0.80;;
56629;SDS011;42502;40.732;-74.254;2022-10-31T08:15:26;2.08;;;0.75;;
56629;SDS011;42502;40.732;-74.254;2022-10-31T08:17:27;1.35;;;0.68;;
56629;SDS011;42502;40.732;-74.254;2022-10-31T08:19:32;2.55;;;0.70;;
56629;SDS011;42502;40.732;-74.254;2022-10-31T08:21:33;1.17;;;0.68;;
56629;SDS011;42502;40.732;-74.254;2022-10-31T08:23:34;1.00;;;0.60;;
56629;SDS011;42502;40.732;-74.254;2022-10-31T08:25:35;1.33;;;0.82;;
56629;SDS011;42502;40.732;-74.254;2022-10-31T08:27:37;0.70;;;0.60;;
56629;SDS011;42502;40.732;-74.254;2022-10-31T08:29:37;2.80;;;0.70;;
56629;SDS011;42502;40.732;-74.254;2022-10-31T08:31:38;2.70;;;0.63;;
56629;SDS011;42502;40.732;-74.254;2022-10-31T08:33:39;2.30;;;0.60;;
56629;SDS011;42502;40.732;-74.254;2022-10-31T08:35:42;1.23;;;0.70;;
56629;SDS011;42502;40.732;-74.254;2022-10-31T08:37:43;1.20;;;0.80;;
56629;SDS011;42502;40.732;-74.254;2022-10-31T08:39:44;1.40;;;0.65;;
56629;SDS011;42502;40.732;-74.254;2022-10-31T08:41:46;1.02;;;0.70;;
56629;SDS011;42502;40.732;-74.254;2022-10-31T08:43:47;0.90;;;0.70;;
56629;SDS011;42502;40.732;-74.254;2022-10-31T08:45:48;1.35;;;0.60;;
56629;SDS011;42502;40.732;-74.254;2022-10-31T08:47:49;2.22;;;0.70;;
56629;SDS011;42502;40.732;-74.254;2022-10-31T08:49:50;0.98;;;0.70;;
56629;SDS011;42502;40.732;-74.254;2022-10-31T08:51:51;0.90;;;0.68;;
56629;SDS011;42502;40.732;-74.254;2022-10-31T08:53:52;1.23;;;0.65;;
56629;SDS011;42502;40.732;-74.254;2022-10-31T08:55:56;0.95;;;0.60;;
56629;SDS011;42502;40.732;-74.254;2022-10-31T08:57:57;1.38;;;0.70;;
56629;SDS011;42502;40.732;-74.254;2022-10-31T08:59:58;3.10;;;0.70;;
56629;SDS011;42502;40.732;-74.254;2022-10-31T09:01:59;0.60;;;0.50;;
56629;SDS011;42502;40.732;-74.254;2022-10-31T09:04:03;1.20;;;0.60;;
56629;SDS011;42502;40.732;-74.254;2022-10-31T09:06:04;1.95;;;0.70;;
56629;SDS011;42502;40.732;-74.254;2022-10-31T09:08:08;1.38;;;0.60;;
56629;SDS011;42502;40.732;-74.254;2022-10-31T09:10:09;1.35;;;0.70;;
56629;SDS011;42502;40.732;-74.254;2022-10-31T09:12:13;0.80;;;0.65;;
56629;SDS011;42502;40.732;-74.254;2022-10-31T09:14:13;2.08;;;0.60;;
56629;SDS011;42502;40.732;-74.254;2022-10-31T09:16:20;0.70;;;0.65;;
56629;SDS011;42502;40.732;-74.254;2022-10-31T09:18:21;1.33;;;0.60;;
56629;SDS011;42502;40.732;-74.254;2022-10-31T09:20:23;0.75;;;0.55;;
56629;SDS011;42502;40.732;-74.254;2022-10-31T09:22:24;2.92;;;0.70;;
56629;SDS011;42502;40.732;-74.254;2022-10-31T09:24:25;1.35;;;0.60;;
56629;SDS011;42502;40.732;-74.254;2022-10-31T09:26:25;2.33;;;0.60;;
56629;SDS011;42502;40.732;-74.254;2022-10-31T09:28:29;1.38;;;0.70;;
56629;SDS011;42502;40.732;-74.254;2022-10-31T09:30:30;3.08;;;0.60;;
56629;SDS011;42502;40.732;-74.254;2022-10-31T09:32:32;2.10;;;0.70;;
56629;SDS011;42502;40.732;-74.254;2022-10-31T09:34:39;3.70;;;0.70;;
56629;SDS011;42502;40.732;-74.254;2022-10-31T09:36:39;4.45;;;0.95;;
56629;SDS011;42502;40.732;-74.254;2022-10-31T09:38:44;1.23;;;0.60;;
56629;SDS011;42502;40.732;-74.254;2022-10-31T09:40:46;4.00;;;0.70;;
56629;SDS011;42502;40.732;-74.254;2022-10-31T09:45:14;1.35;;;0.88;;
56629;SDS011;42502;40.732;-74.254;2022-10-31T09:47:28;8.70;;;1.52;;
56629;SDS011;42502;40.732;-74.254;2022-10-31T09:50:01;14.55;;;2.53;;
56629;SDS011;42502;40.732;-74.254;2022-10-31T09:52:36;21.65;;;2.03;;
56629;SDS011;42502;40.732;-74.254;2022-10-31T09:54:46;13.95;;;1.80;;
56629;SDS011;42502;40.732;-74.254;2022-10-31T09:57:10;19.80;;;1.95;;
56629;SDS011;42502;40.732;-74.254;2022-10-31T09:59:17;13.25;;;2.40;;
56629;SDS011;42502;40.732;-74.254;2022-10-31T10:01:42;13.93;;;1.63;;
56629;SDS011;42502;40.732;-74.254;2022-10-31T10:03:56;11.32;;;1.85;;
56629;SDS011;42502;40.732;-74.254;2022-10-31T10:06:11;11.35;;;2.08;;
56629;SDS011;42502;40.732;-74.254;2022-10-31T10:08:23;8.23;;;1.88;;
56629;SDS011;42502;40.732;-74.254;2022-10-31T10:17:40;11.18;;;1.83;;
56629;SDS011;42502;40.732;-74.254;2022-10-31T10:24:53;20.98;;;2.90;;
56629;SDS011;42502;40.732;-74.254;2022-10-31T10:29:31;16.13;;;2.15;;
56629;SDS011;42502;40.732;-74.254;2022-10-31T10:31:41;15.48;;;1.80;;
56629;SDS011;42502;40.732;-74.254;2022-10-31T10:33:50;9.07;;;2.00;;
56629;SDS011;42502;40.732;-74.254;2022-10-31T10:35:59;11.30;;;2.13;;
56629;SDS011;42502;40.732;-74.254;2022-10-31T10:40:49;16.15;;;2.10;;
56629;SDS011;42502;40.732;-74.254;2022-10-31T10:45:21;9.52;;;2.35;;
56629;SDS011;42502;40.732;-74.254;2022-10-31T10:47:44;11.75;;;1.67;;
56629;SDS011;42502;40.732;-74.254;2022-10-31T10:49:50;9.35;;;1.73;;
56629;SDS011;42502;40.732;-74.254;2022-10-31T10:51:59;9.13;;;1.60;;
56629;SDS011;42502;40.732;-74.254;2022-10-31T10:56:36;8.13;;;1.75;;
56629;SDS011;42502;40.732;-74.254;2022-10-31T10:58:59;8.55;;;1.33;;
56629;SDS011;42502;40.732;-74.254;2022-10-31T11:01:00;5.35;;;1.58;;
56629;SDS011;42502;40.732;-74.254;2022-10-31T11:03:03;6.18;;;1.30;;
56629;SDS011;42502;40.732;-74.254;2022-10-31T11:05:08;12.93;;;1.70;;
56629;SDS011;42502;40.732;-74.254;2022-10-31T11:07:38;8.60;;;1.65;;
56629;SDS011;42502;40.732;-74.254;2022-10-31T11:09:41;4.20;;;1.55;;
56629;SDS011;42502;40.732;-74.254;2022-10-31T11:11:43;9.60;;;1.60;;
56629;SDS011;42502;40.732;-74.254;2022-10-31T11:13:45;9.18;;;1.40;;
56629;SDS011;42502;40.732;-74.254;2022-10-31T11:18:12;5.82;;;1.20;;
56629;SDS011;42502;40.732;-74.254;2022-10-31T11:20:27;8.75;;;1.50;;
56629;SDS011;42502;40.732;-74.254;2022-10-31T11:22:30;6.35;;;1.50;;
56629;SDS011;42502;40.732;-74.254;2022-10-31T11:24:35;4.68;;;1.20;;
56629;SDS011;42502;40.732;-74.254;2022-10-31T11:26:41;2.83;;;1.10;;
56629;SDS011;42502;40.732;-74.254;2022-10-31T11:28:43;9.05;;;1.30;;
56629;SDS011;42502;40.732;-74.254;2022-10-31T11:30:45;3.85;;;1.35;;
56629;SDS011;42502;40.732;-74.254;2022-10-31T11:32:49;5.55;;;1.20;;
56629;SDS011;42502;40.732;-74.254;2022-10-31T11:34:59;4.63;;;1.10;;
56629;SDS011;42502;40.732;-74.254;2022-10-31T11:37:48;5.88;;;1.20;;
56629;SDS011;42502;40.732;-74.254;2022-10-31T11:39:40;4.05;;;1.05;;
56629;SDS011;42502;40.732;-74.254;2022-10-31T11:41:43;2.95;;;1.30;;
56629;SDS011;42502;40.732;-74.254;2022-10-31T11:44:18;5.30;;;1.10;;
56629;SDS011;42502;40.732;-74.254;2022-10-31T11:46:40;7.75;;;1.40;;
56629;SDS011;42502;40.732;-74.254;2022-10-31T11:48:50;6.22;;;1.50;;
56629;SDS011;42502;40.732;-74.254;2022-10-31T11:50:55;6.30;;;1.00;;
56629;SDS011;42502;40.732;-74.254;2022-10-31T11:53:03;4.38;;;1.30;;
56629;SDS011;42502;40.732;-74.254;2022-10-31T11:55:17;4.63;;;1.55;;
56629;SDS011;42502;40.732;-74.254;2022-10-31T11:57:42;5.47;;;1.15;;
56629;SDS011;42502;40.732;-74.254;2022-10-31T11:59:51;4.93;;;1.33;;
56629;SDS011;42502;40.732;-74.254;2022-10-31T12:01:55;4.28;;;1.25;;
56629;SDS011;42502;40.732;-74.254;2022-10-31T12:04:08;5.28;;;1.00;;
56629;SDS011;42502;40.732;-74.254;2022-10-31T12:06:16;4.35;;;1.10;;
56629;SDS011;42502;40.732;-74.254;2022-10-31T12:08:24;4.78;;;1.10;;
56629;SDS011;42502;40.732;-74.254;2022-10-31T12:10:37;1.65;;;1.00;;
56629;SDS011;42502;40.732;-74.254;2022-10-31T12:39:21;5.13;;;1.23;;
56629;SDS011;42502;40.732;-74.254;2022-10-31T12:46:10;7.15;;;1.20;;
56629;SDS011;42502;40.732;-74.254;2022-10-31T12:50:54;5.78;;;1.52;;
56629;SDS011;42502;40.732;-74.254;2022-10-31T12:55:37;3.30;;;1.20;;
56629;SDS011;42502;40.732;-74.254;2022-10-31T13:00:03;7.53;;;1.00;;
56629;SDS011;42502;40.732;-74.254;2022-10-31T13:02:22;2.85;;;1.10;;
56629;SDS011;42502;40.732;-74.254;2022-10-31T13:06:54;2.95;;;1.00;;
56629;SDS011;42502;40.732;-74.254;2022-10-31T13:09:01;4.72;;;1.10;;
56629;SDS011;42502;40.732;-74.254;2022-10-31T13:15:30;6.05;;;1.00;;
56629;SDS011;42502;40.732;-74.254;2022-10-31T13:17:45;4.20;;;1.30;;
56629;SDS011;42502;40.732;-74.254;2022-10-31T13:19:49;4.50;;;1.00;;
56629;SDS011;42502;40.732;-74.254;2022-10-31T13:24:00;5.28;;;1.10;;
56629;SDS011;42502;40.732;-74.254;2022-10-31T13:28:57;3.83;;;0.90;;
56629;SDS011;42502;40.732;-74.254;2022-10-31T13:31:03;2.30;;;1.10;;
56629;SDS011;42502;40.732;-74.254;2022-10-31T13:35:26;4.65;;;1.00;;
56629;SDS011;42502;40.732;-74.254;2022-10-31T13:37:48;4.18;;;0.90;;
56629;SDS011;42502;40.732;-74.254;2022-10-31T13:44:49;3.90;;;0.93;;
56629;SDS011;42502;40.732;-74.254;2022-10-31T13:46:50;5.05;;;1.00;;
56629;SDS011;42502;40.732;-74.254;2022-10-31T13:48:52;5.07;;;1.00;;
56629;SDS011;42502;40.732;-74.254;2022-10-31T13:51:04;6.38;;;1.55;;
56629;SDS011;42502;40.732;-74.254;2022-10-31T13:53:18;4.10;;;0.93;;
56629;SDS011;42502;40.732;-74.254;2022-10-31T13:55:40;5.70;;;1.20;;
56629;SDS011;42502;40.732;-74.254;2022-10-31T13:57:43;1.30;;;0.80;;
56629;SDS011;42502;40.732;-74.254;2022-10-31T13:59:51;5.25;;;1.10;;
56629;SDS011;42502;40.732;-74.254;2022-10-31T14:01:55;2.65;;;1.20;;
56629;SDS011;42502;40.732;-74.254;2022-10-31T14:04:13;3.17;;;1.10;;
56629;SDS011;42502;40.732;-74.254;2022-10-31T14:08:18;3.80;;;1.00;;